Baker, OR

10:01 AM PDT on August 22, 2014 (GMT -0700)
Baker City Municipal | Change Station
CLOSE
Current Station
Airport
Location: Baker,
Elevation: 3373 ft
Nearby Weather Stations

Elev 3373 ft 44.84 °N, 117.81 °W | Updated 1 hour ago

Clear
Clear
59 °F
Feels Like 59 °F
N
6
Wind Variable Wind from West

Today
High -- | Low -- °F
--% Chance of Precip.
Yesterday
High -- | Low -- °F
Precip. -- in
6:01 AM 7:45 PM
Waning Crescent, 7% visible
Pressure 29.95 in
Visibility 10.0 miles
Clouds Clear
Dew Point 41 °F
Humidity 51%
Rainfall 0.00 in
Snow Depth 0 in
UV 3 out of 12
Pollen 5.50 out of 12
Air Quality Not available.
Flu Activity Not available.
METAR KBKE 221553Z AUTO 26005KT 10SM CLR 15/05 A2999 RMK AO2 SLP141 T01500050 TSNO $

More Conditions Fewer Conditions

Pressure 29.95 in
Visibility 10.0 miles
Clouds Clear
Dew Point 41 °F
Humidity 51%
Rainfall 0.00 in
Snow Depth 0 in
UV 3 out of 12
Pollen 5.50 out of 12
Air Quality Not available.
Flu Activity Not available.
METAR KBKE 221553Z AUTO 26005KT 10SM CLR 15/05 A2999 RMK AO2 SLP141 T01500050 TSNO $

More Conditions Fewer Conditions

10-Day Weather Forecast

Almanac

Astronomy

Aug. 22, 2014 Rise Set
Actual Time 6:01 AM PDT 7:45 PM PDT
Civil Twilight 5:30 AM PDT 8:16 PM PDT
Nautical Twilight 4:53 AM PDT 8:54 PM PDT
Astronomical Twilight 4:12 AM PDT 9:34 PM PDT
Moon 3:25 AM PDT 5:59 PM PDT
Length of Visible Light 14h 45m
Length of Day
13h 43m
Tomorrow will be 2m 53s shorter.
Waning Crescent, 7% of the Moon is Illuminated
Today
Waning Crescent
Aug 25
New
Sep 2
First Quarter
Sep 8
Full
Sep 15
Last Quarter

Today's Extremes

State Highs State Lows

Community

WunderPhotos

Upload Photos

1,746,203 photos uploaded!

Nearby

Snow Depth

Station Depth Elevation
Bourne 0 in 5800 ft
Gold Center 0 in 5340 ft
Tipton 0 in 5150 ft
Schneider Meadows 0 in 5400 ft
Aneroid Lake #2 0 in 7300 ft

Earthquake Activity

City Distance Mag. Time & Date
No recent earthquake activity has been reported nearby.
Minimum magnitude displayed is 2.5.

Coastal Water Temperatures

Place Temperature
No Stations Reporting

Nearby Weather Stations